Airfield :
LOGIN :

Register | Disclaimer

   EN    FR    IT 

 










Legend :    VFR   Marginal VFR   IFR   Intensive IFR   Very Intensive IFR
Visi :
Ceiling :
>= 8 km
>= 3000ft
5 to 8 km
1000 to 3000 ft
1500m to 5 km
500 to 1000 ft
800 to 1500m
200 to 500 ft
< 800m
< 200 ft
Symbols :   Thunderstorms  Fog  Heavy snow  Heavy precipitations  Wind > 20 kt
SIGMETs :     Misc.  Thunderstorms  Icing  Turbulence  Mountain Waves  Volcanic Ashes






- Airport Elevation : 39 ft
- IATA code : CTA


LICC - Catania Fontanarossa

CURRENT METAR :
  • 190650Z 24007KT CAVOK 04/02 Q1022

EXPIRED METARs :
  • 190620Z VRB07KT CAVOK 04/02 Q1022
  • 190550Z 23003KT 180V350 CAVOK 04/01 Q1022
  • 190520Z 26008KT CAVOK 05/02 Q1021
  • 190450Z 26012KT CAVOK 05/02 Q1021

TAF TAF LICC
Valid from the 19 at 06:00 until the 20 at 06:00 UTC


190500Z 1906/2006 25006KT 9999 SCT030
BECMG 1907/1909 08010KT



MET'MAP, your aeronautical weather chart ! - Copyright ORBIFLY December 2007 - Disclaimer

ORBIFLY MET'MAP TEAM :

Programming & Development : Alexandra Zaïnal
Concept & original design : Baudouin d'Aumeries
Assistance for programming : Marc-Olivier Méhu
Technical & hardware support : Manuel Goepfert

Contact : metmap@orbifly.com




SOURCES & CREDITS :

   NOAA